Time;durP1;ratioP1;P1;durP2;ratioP2;P2;SDS_P1;SDS_P2;PMS_P1;PMS_P2;Temp;Humidity;BMP_temperature;BMP_pressure;BME280_temperature;BME280_humidity;BME280_pressure;Samples;Min_cycle;Max_cycle;Signal;HPM_P1;HPM_P2
2024/02/13 00:02:08;;;;;;;19.80;9.32;;;;;;;8.93;57.20;92865.84;5035784;28;20052;-70
2024/02/13 00:04:33;;;;;;;19.17;9.25;;;;;;;9.08;57.01;92889.13;5053303;28;20490;-70
2024/02/13 00:06:59;;;;;;;20.65;11.60;;;;;;;8.95;56.51;92879.56;5035602;28;20072;-70
2024/02/13 00:09:24;;;;;;;15.80;8.77;;;;;;;8.81;57.11;92863.13;5053116;28;20041;-70
2024/02/13 00:11:50;;;;;;;19.38;9.63;;;;;;;9.06;57.38;92893.97;5052938;28;20021;-71
2024/02/13 00:14:16;;;;;;;23.83;10.25;;;;;;;9.20;57.12;92888.41;5053354;28;20028;-70
2024/02/13 00:16:44;;;;;;;16.10;10.18;;;;;;;9.20;56.81;92891.84;5053160;28;20029;-70
2024/02/13 00:19:11;;;;;;;17.85;9.40;;;;;;;9.16;56.61;92896.25;5053056;28;20052;-70
2024/02/13 00:21:37;;;;;;;18.98;8.52;;;;;;;9.19;56.64;92900.13;5052692;28;20021;-70
2024/02/13 00:24:02;;;;;;;14.48;8.65;;;;;;;9.17;56.97;92897.81;5053030;28;20021;-70
2024/02/13 00:26:28;;;;;;;18.63;7.45;;;;;;;9.02;56.64;92858.59;5053326;28;20100;-70
2024/02/13 00:28:54;;;;;;;13.23;8.00;;;;;;;9.29;56.52;92903.13;5052414;28;20503;-71
2024/02/13 00:31:20;;;;;;;15.00;8.50;;;;;;;9.07;57.12;92898.16;5052881;28;20096;-70
2024/02/13 00:33:48;;;;;;;15.82;7.40;;;;;;;8.77;57.01;92888.72;5052756;28;20037;-71
2024/02/13 00:36:17;;;;;;;12.93;7.00;;;;;;;8.77;56.66;92900.13;5052788;28;20045;-71
2024/02/13 00:38:45;;;;;;;14.35;6.90;;;;;;;8.50;57.22;92874.91;5053029;28;20045;-70
2024/02/13 00:41:10;;;;;;;11.23;5.88;;;;;;;8.41;56.72;92865.47;5053155;28;20051;-70
2024/02/13 00:43:36;;;;;;;11.10;6.28;;;;;;;8.68;56.53;92901.28;5052421;28;20409;-70
2024/02/13 00:46:01;;;;;;;11.73;5.68;;;;;;;8.53;56.88;92898.09;5034462;28;20131;-71
2024/02/13 00:48:27;;;;;;;12.20;5.15;;;;;;;8.32;57.59;92878.75;5052505;28;20037;-70
2024/02/13 00:50:52;;;;;;;10.73;4.80;;;;;;;8.47;57.19;92896.72;5052323;28;20111;-70
2024/02/13 00:53:18;;;;;;;13.85;6.68;;;;;;;8.34;57.38;92889.81;5052889;28;20029;-71
2024/02/13 00:55:44;;;;;;;5.07;3.63;;;;;;;8.17;57.72;92881.94;5052243;28;20049;-70
2024/02/13 00:58:10;;;;;;;9.85;4.20;;;;;;;8.12;57.90;92874.19;5052237;28;20112;-70
2024/02/13 01:00:35;;;;;;;6.90;3.85;;;;;;;8.01;58.53;92878.31;5052243;28;20041;-69
2024/02/13 01:03:04;;;;;;;12.82;5.25;;;;;;;8.13;57.83;92892.41;5052410;28;20025;-71
2024/02/13 01:05:30;;;;;;;7.72;3.33;;;;;;;8.13;58.29;92897.69;5052489;28;20083;-71
2024/02/13 01:07:56;;;;;;;8.10;3.25;;;;;;;8.12;57.85;92890.06;5052324;28;20029;-71
2024/02/13 01:10:22;;;;;;;4.50;2.60;;;;;;;7.90;58.05;92872.59;5051835;28;20036;-70
2024/02/13 01:12:48;;;;;;;5.78;3.33;;;;;;;8.15;57.93;92894.75;5051953;28;20671;-70
2024/02/13 01:15:14;;;;;;;7.90;2.90;;;;;;;7.64;58.59;92854.13;5051808;28;20115;-71
2024/02/13 01:17:40;;;;;;;7.28;3.35;;;;;;;7.84;58.51;92867.78;5052445;28;20580;-70
2024/02/13 01:20:10;;;;;;;6.53;3.10;;;;;;;7.75;59.67;92874.97;5051671;28;20036;-71
2024/02/13 01:22:35;;;;;;;7.00;3.72;;;;;;;7.73;60.15;92893.06;5051765;28;20040;-70
2024/02/13 01:25:01;;;;;;;8.95;3.55;;;;;;;7.81;60.19;92885.09;5033675;28;20083;-71
2024/02/13 01:27:26;;;;;;;4.93;3.20;;;;;;;7.64;60.63;92891.16;5051857;28;20036;-71
2024/02/13 01:29:52;;;;;;;8.48;3.17;;;;;;;7.23;62.53;92902.34;5052091;28;20025;-70
2024/02/13 01:32:18;;;;;;;7.45;3.80;;;;;;;7.26;63.40;92895.63;5051904;28;20426;-71
2024/02/13 01:34:43;;;;;;;7.82;4.40;;;;;;;7.21;63.53;92890.50;5051234;28;20128;-70
2024/02/13 01:37:08;;;;;;;8.52;4.13;;;;;;;7.00;64.20;92877.16;5051168;28;20032;-70
2024/02/13 01:39:34;;;;;;;6.60;4.55;;;;;;;7.07;64.27;92895.19;5051507;28;20071;-71
2024/02/13 01:41:59;;;;;;;7.55;3.75;;;;;;;6.94;65.41;92912.00;5051625;28;20025;-71
2024/02/13 01:44:28;;;;;;;7.70;3.72;;;;;;;7.09;64.29;92895.66;5051974;28;20045;-70
2024/02/13 01:46:53;;;;;;;6.57;3.85;;;;;;;7.12;64.85;92922.25;5051315;28;20040;-71
2024/02/13 01:49:20;;;;;;;9.00;3.90;;;;;;;7.00;64.65;92902.81;5051316;28;20519;-70
2024/02/13 01:51:51;;;;;;;3.42;3.08;;;;;;;7.10;64.83;92926.28;5051066;28;20041;-70
2024/02/13 01:54:16;;;;;;;4.57;3.47;;;;;;;7.06;64.40;92920.84;5051328;28;20029;-70
2024/02/13 01:56:46;;;;;;;6.10;3.45;;;;;;;7.02;64.23;92924.44;5051564;28;20025;-70
2024/02/13 01:59:14;;;;;;;5.78;2.78;;;;;;;6.86;64.55;92916.19;5051743;28;20033;-70
2024/02/13 02:01:42;;;;;;;5.97;3.03;;;;;;;6.73;65.45;92925.03;5051177;28;20041;-70
2024/02/13 02:04:07;;;;;;;5.53;3.03;;;;;;;6.89;65.47;92930.66;5051122;28;20547;-70
2024/02/13 02:06:34;;;;;;;4.43;3.05;;;;;;;6.76;65.60;92927.84;5051236;28;20067;-70
2024/02/13 02:09:01;;;;;;;5.05;3.42;;;;;;;6.80;65.63;92941.97;5050846;28;20029;-70
2024/02/13 02:11:26;;;;;;;4.25;3.25;;;;;;;6.87;65.64;92930.97;5051672;28;20043;-71
2024/02/13 02:13:55;;;;;;;3.72;3.08;;;;;;;6.52;66.73;92930.16;5051092;28;20036;-70
2024/02/13 02:16:21;;;;;;;4.47;3.40;;;;;;;6.66;66.55;92930.78;5051017;28;20506;-70
2024/02/13 02:18:47;;;;;;;6.70;3.42;;;;;;;6.80;65.72;92939.34;5050662;28;20087;-70
2024/02/13 02:21:13;;;;;;;3.60;2.60;;;;;;;6.80;65.63;92935.91;5050687;28;20163;-70
2024/02/13 02:23:38;;;;;;;5.95;2.42;;;;;;;6.60;66.55;92941.81;5051013;28;20032;-71
2024/02/13 02:26:06;;;;;;;3.47;2.63;;;;;;;6.62;66.19;92924.56;5050918;28;20040;-70
2024/02/13 02:28:32;;;;;;;4.63;2.92;;;;;;;6.61;66.63;92946.00;5050152;28;20029;-70
2024/02/13 02:30:58;;;;;;;3.70;2.80;;;;;;;6.67;66.93;92955.34;5050884;28;20124;-70
2024/02/13 02:33:23;;;;;;;4.38;2.83;;;;;;;6.70;66.90;92942.28;5050813;28;20119;-70
2024/02/13 02:35:48;;;;;;;4.90;3.03;;;;;;;6.76;66.48;92945.56;5050453;28;20028;-70
2024/02/13 02:38:15;;;;;;;5.35;3.30;;;;;;;6.57;67.54;92953.78;5050557;28;20020;-70
2024/02/13 02:40:40;;;;;;;2.95;2.60;;;;;;;6.40;68.75;92957.16;5050402;28;20065;-70
2024/02/13 02:43:06;;;;;;;3.10;2.80;;;;;;;6.57;67.83;92950.34;5050477;28;20065;-70
2024/02/13 02:45:32;;;;;;;3.92;3.13;;;;;;;6.81;67.11;92962.03;5050029;28;20064;-70
2024/02/13 02:47:57;;;;;;;4.32;3.47;;;;;;;6.89;66.83;92955.22;5049626;28;20029;-70
2024/02/13 02:50:23;;;;;;;3.90;2.47;;;;;;;6.94;67.14;92967.50;5051027;28;20045;-71
2024/02/13 02:52:49;;;;;;;2.50;2.03;;;;;;;6.90;67.22;92971.88;5050034;28;20045;-70
2024/02/13 02:55:19;;;;;;;3.70;3.10;;;;;;;6.48;67.76;92934.50;5050300;28;20036;-70
2024/02/13 02:57:45;;;;;;;2.88;2.35;;;;;;;6.66;68.31;92973.06;5050230;28;20037;-71
2024/02/13 03:00:12;;;;;;;3.67;2.75;;;;;;;6.61;69.20;92978.47;5050184;28;20025;-71
2024/02/13 03:02:38;;;;;;;3.45;2.95;;;;;;;6.62;68.89;92982.69;5050771;28;20529;-70
2024/02/13 03:05:05;;;;;;;4.13;2.83;;;;;;;6.61;68.63;92975.84;5050002;28;20040;-70
2024/02/13 03:07:30;;;;;;;5.03;3.22;;;;;;;6.79;68.18;92988.03;5049945;28;20037;-70
2024/02/13 03:09:56;;;;;;;4.15;2.55;;;;;;;6.79;67.95;92993.31;5050296;28;20033;-71
2024/02/13 03:12:21;;;;;;;3.28;2.70;;;;;;;7.00;66.80;92992.69;5049814;28;20044;-71
2024/02/13 03:14:50;;;;;;;3.00;2.65;;;;;;;6.59;67.84;92991.25;5049983;28;20025;-69
2024/02/13 03:17:17;;;;;;;3.47;2.33;;;;;;;6.67;67.06;93003.69;5050762;28;20044;-71
2024/02/13 03:19:42;;;;;;;3.35;2.47;;;;;;;6.65;66.44;93000.56;5050253;28;20095;-70
2024/02/13 03:22:07;;;;;;;2.80;1.77;;;;;;;6.42;66.96;92975.34;5050051;28;20029;-70
2024/02/13 03:24:33;;;;;;;2.58;2.17;;;;;;;6.49;66.57;93002.09;5049897;28;20043;-71
2024/02/13 03:27:00;;;;;;;2.00;1.70;;;;;;;6.51;65.32;92997.25;5049901;28;20513;-71
2024/02/13 03:29:25;;;;;;;2.85;1.88;;;;;;;6.58;64.44;92994.97;5050144;28;20474;-71
2024/02/13 03:31:50;;;;;;;1.40;1.30;;;;;;;6.44;64.33;93002.22;5049778;28;20025;-70
2024/02/13 03:34:16;;;;;;;2.42;2.22;;;;;;;6.23;63.89;92996.72;5049848;28;20520;-71
2024/02/13 03:36:42;;;;;;;2.10;1.58;;;;;;;6.40;63.47;93006.56;5050062;28;20036;-70
2024/02/13 03:39:08;;;;;;;1.60;1.27;;;;;;;6.34;63.33;92989.31;5049506;28;20045;-70
2024/02/13 03:41:40;;;;;;;2.30;1.60;;;;;;;6.37;63.61;93007.94;5050241;28;20385;-70
2024/02/13 03:44:10;;;;;;;1.30;1.20;;;;;;;6.23;62.51;92980.09;5049709;28;20108;-70
2024/02/13 03:46:35;;;;;;;2.85;1.73;;;;;;;6.51;61.79;93007.81;5049405;28;20098;-70
2024/02/13 03:49:01;;;;;;;2.42;1.77;;;;;;;6.47;60.86;93001.59;5049314;28;20045;-71
2024/02/13 03:51:26;;;;;;;2.47;2.10;;;;;;;6.24;61.47;93013.34;5049854;28;20025;-71
2024/02/13 03:53:51;;;;;;;1.52;1.42;;;;;;;6.14;61.65;93021.50;5049769;28;20470;-70
2024/02/13 03:56:17;;;;;;;2.03;1.83;;;;;;;6.11;61.58;92993.06;5050370;28;20174;-70
2024/02/13 03:58:43;;;;;;;2.10;2.00;;;;;;;6.29;61.01;93021.13;5050439;28;20029;-70
2024/02/13 04:01:09;;;;;;;2.13;1.92;;;;;;;6.06;61.29;92996.63;5053556;28;20040;-70
2024/02/13 04:03:36;;;;;;;2.40;2.08;;;;;;;6.19;61.48;93021.41;5053224;28;20167;-70
2024/02/13 04:06:06;;;;;;;1.77;1.67;;;;;;;6.32;60.31;93031.06;5053151;28;20029;-70
2024/02/13 04:08:31;;;;;;;1.63;1.52;;;;;;;5.91;60.71;93005.72;5053682;28;20035;-70
2024/02/13 04:10:57;;;;;;;1.70;1.40;;;;;;;5.87;60.72;93002.09;5053214;28;20033;-71
2024/02/13 04:13:25;;;;;;;2.03;1.52;;;;;;;6.14;59.76;93011.72;5053031;28;20037;-71
2024/02/13 04:15:50;;;;;;;1.65;1.55;;;;;;;6.17;60.35;93026.19;5053187;28;20051;-69
2024/02/13 04:18:16;;;;;;;2.08;1.88;;;;;;;6.02;60.54;93030.75;5053036;28;20569;-71
2024/02/13 04:20:42;;;;;;;2.20;2.00;;;;;;;6.12;60.65;93026.28;5053742;28;20521;-70
2024/02/13 04:23:08;;;;;;;1.60;1.50;;;;;;;5.98;60.49;93029.03;5052910;28;20036;-70
2024/02/13 04:25:33;;;;;;;1.70;1.60;;;;;;;6.10;60.52;93031.88;5052620;28;20029;-70
2024/02/13 04:27:59;;;;;;;2.00;1.40;;;;;;;5.78;60.49;93032.16;5053093;28;20521;-70
2024/02/13 04:30:24;;;;;;;1.50;1.40;;;;;;;5.78;60.38;93019.75;5052723;28;20455;-70
2024/02/13 04:32:50;;;;;;;1.90;1.70;;;;;;;5.98;60.16;93023.75;5052641;28;20044;-70
2024/02/13 04:35:15;;;;;;;2.22;1.60;;;;;;;5.63;59.98;92999.03;5053217;28;20040;-70
2024/02/13 04:37:41;;;;;;;1.30;1.13;;;;;;;5.49;59.94;92985.91;5052737;28;20093;-71
2024/02/13 04:40:08;;;;;;;1.38;1.27;;;;;;;5.97;58.93;93035.38;5052601;28;20033;-71
2024/02/13 04:42:37;;;;;;;1.35;1.20;;;;;;;6.02;58.24;93018.66;5052483;28;20045;-70
2024/02/13 04:45:04;;;;;;;2.67;1.10;;;;;;;5.97;57.32;93025.59;5052133;28;20096;-70
2024/02/13 04:47:30;;;;;;;1.10;1.10;;;;;;;5.87;57.30;93017.94;5052654;28;20520;-70
2024/02/13 04:50:00;;;;;;;1.00;0.80;;;;;;;5.85;57.55;93043.09;5052339;28;20090;-73
2024/02/13 04:52:26;;;;;;;1.77;1.38;;;;;;;5.76;58.44;93053.59;5052033;28;20044;-70
2024/02/13 04:54:53;;;;;;;1.08;1.00;;;;;;;5.66;58.10;93034.59;5052843;28;20037;-70
2024/02/13 04:57:19;;;;;;;1.20;1.10;;;;;;;5.84;57.53;93050.22;5052116;28;20037;-70
2024/02/13 04:59:48;;;;;;;1.20;1.10;;;;;;;5.73;57.82;93056.81;5052711;28;20025;-70
2024/02/13 05:02:24;;;;;;;1.58;1.40;;;;;;;5.72;57.81;93057.91;5052154;28;20040;-70
2024/02/13 05:07:36;;;;;;;1.20;1.10;;;;;;;5.44;58.26;93043.25;5052168;28;20040;-70
2024/02/13 05:10:02;;;;;;;1.27;1.17;;;;;;;5.65;57.81;93057.53;5051145;28;20037;-70
2024/02/13 05:12:28;;;;;;;1.27;1.02;;;;;;;5.74;57.71;93058.38;5052279;28;20037;-70
2024/02/13 05:14:54;;;;;;;1.58;1.48;;;;;;;5.67;58.10;93058.03;5052215;28;20521;-70
2024/02/13 05:17:21;;;;;;;1.60;1.27;;;;;;;5.65;58.87;93044.34;5052473;28;20021;-70
2024/02/13 05:19:49;;;;;;;1.55;1.25;;;;;;;5.95;58.16;93070.00;5051769;28;20040;-70
2024/02/13 05:22:16;;;;;;;1.27;1.17;;;;;;;5.99;57.68;93081.50;5052090;28;20025;-70
2024/02/13 05:24:42;;;;;;;1.50;1.15;;;;;;;5.91;57.30;93057.72;5051683;28;20033;-70
2024/02/13 05:27:08;;;;;;;1.35;1.25;;;;;;;5.96;56.98;93068.94;5051748;28;20029;-70
2024/02/13 05:29:41;;;;;;;1.73;1.30;;;;;;;5.87;57.06;93089.19;5051527;28;20075;-70
2024/02/13 05:32:07;;;;;;;1.70;1.58;;;;;;;5.88;57.13;93093.38;5056565;28;20121;-70
2024/02/13 05:34:33;;;;;;;1.50;1.40;;;;;;;5.84;57.34;93094.28;5061939;28;20494;-70
2024/02/13 05:36:58;;;;;;;1.52;1.42;;;;;;;5.85;57.72;93096.63;5040021;28;20125;-70
2024/02/13 05:39:28;;;;;;;1.88;1.55;;;;;;;5.83;57.63;93093.50;5040921;28;20092;-71
2024/02/13 05:41:54;;;;;;;1.88;1.70;;;;;;;5.91;57.32;93106.00;5055140;28;20021;-70
2024/02/13 05:44:20;;;;;;;3.83;1.55;;;;;;;6.02;56.68;93116.31;5051825;28;20044;-70
2024/02/13 05:46:46;;;;;;;1.92;1.80;;;;;;;5.90;56.98;93114.22;5056374;28;20083;-70
2024/02/13 05:49:12;;;;;;;2.20;2.08;;;;;;;5.97;57.35;93117.97;5042382;28;20452;-70
2024/02/13 05:51:38;;;;;;;1.83;1.50;;;;;;;6.02;57.20;93119.72;5056280;28;20044;-70
2024/02/13 05:54:04;;;;;;;2.38;1.67;;;;;;;6.03;56.95;93121.28;5051420;28;20579;-70
2024/02/13 05:56:31;;;;;;;1.60;1.50;;;;;;;5.99;57.04;93123.75;5033558;28;20385;-70
2024/02/13 05:58:57;;;;;;;2.80;1.67;;;;;;;5.80;57.22;93138.97;5051149;28;20029;-69
2024/02/13 06:01:24;;;;;;;1.48;1.38;;;;;;;5.86;56.94;93135.16;5051147;28;20110;-70
2024/02/13 06:03:54;;;;;;;1.65;1.50;;;;;;;5.76;57.55;93145.94;5050687;28;20076;-70
2024/02/13 06:06:20;;;;;;;1.60;1.50;;;;;;;5.91;57.44;93139.53;5050893;28;20112;-70
2024/02/13 06:08:46;;;;;;;1.60;1.50;;;;;;;5.90;57.15;93143.25;5051042;28;20091;-69
2024/02/13 06:11:12;;;;;;;1.58;1.40;;;;;;;6.07;57.27;93146.00;5051418;28;20021;-70
2024/02/13 06:13:40;;;;;;;1.65;1.50;;;;;;;6.02;57.25;93148.00;5050789;28;20451;-70
2024/02/13 06:16:06;;;;;;;3.10;1.52;;;;;;;6.21;56.99;93140.69;5050981;28;20106;-76
2024/02/13 06:18:31;;;;;;;1.70;1.60;;;;;;;6.31;56.14;93135.91;5050510;28;20037;-70
2024/02/13 06:20:57;;;;;;;1.60;1.50;;;;;;;6.41;56.40;93145.44;5050514;28;20548;-70
2024/02/13 06:23:22;;;;;;;1.58;1.48;;;;;;;6.35;55.79;93138.75;5051017;28;20017;-70
2024/02/13 06:25:48;;;;;;;1.40;1.30;;;;;;;6.42;55.74;93136.44;5050559;28;20033;-70
2024/02/13 06:28:14;;;;;;;1.90;1.60;;;;;;;6.42;56.00;93136.44;5050284;28;20460;-70
2024/02/13 06:30:42;;;;;;;2.75;1.70;;;;;;;6.24;56.57;93134.81;5050121;28;20040;-70
2024/02/13 06:33:08;;;;;;;2.20;2.00;;;;;;;6.15;56.64;93139.22;5050583;28;20037;-70
2024/02/13 06:35:33;;;;;;;3.00;1.60;;;;;;;6.14;56.75;93151.63;5050628;28;20017;-70
2024/02/13 06:37:59;;;;;;;1.73;1.60;;;;;;;6.09;57.24;93143.84;5050347;28;20043;-70
2024/02/13 06:40:25;;;;;;;1.65;1.55;;;;;;;6.27;57.03;93155.31;5050190;28;20099;-70
2024/02/13 06:42:50;;;;;;;2.75;1.80;;;;;;;6.50;56.49;93164.00;5050577;28;20116;-71
2024/02/13 06:45:16;;;;;;;4.75;1.98;;;;;;;6.22;56.66;93132.44;5049541;28;20391;-71
2024/02/13 06:47:41;;;;;;;2.15;1.88;;;;;;;6.40;56.82;93149.19;5050951;28;20021;-71
2024/02/13 06:50:11;;;;;;;3.05;2.63;;;;;;;6.33;57.43;93152.25;5050113;28;20033;-73
2024/02/13 06:52:37;;;;;;;2.65;2.45;;;;;;;6.20;58.33;93162.88;5048820;28;20037;-72
2024/02/13 06:55:03;;;;;;;3.03;2.75;;;;;;;6.15;58.95;93162.97;5048892;28;20497;-72
2024/02/13 06:57:31;;;;;;;2.22;2.03;;;;;;;6.15;58.43;93162.97;5049172;28;20067;-71
2024/02/13 06:59:56;;;;;;;2.45;2.20;;;;;;;6.13;58.68;93152.72;5049368;28;20474;-72
2024/02/13 07:02:21;;;;;;;2.50;2.30;;;;;;;5.80;58.58;93115.22;5050615;28;20083;-72
2024/02/13 07:04:47;;;;;;;2.70;2.50;;;;;;;6.02;58.51;93155.91;5049495;28;20393;-72
2024/02/13 07:07:12;;;;;;;2.67;2.30;;;;;;;5.97;58.73;93141.72;5049773;28;20091;-73
2024/02/13 07:09:38;;;;;;;2.05;1.88;;;;;;;6.14;58.19;93162.19;5049757;28;20033;-73
2024/02/13 07:12:03;;;;;;;2.20;2.00;;;;;;;6.08;58.74;93149.41;5049889;28;20509;-73
2024/02/13 07:14:31;;;;;;;1.90;1.75;;;;;;;6.34;58.05;93155.69;5050461;28;20082;-72
2024/02/13 07:16:56;;;;;;;2.20;2.00;;;;;;;6.27;57.86;93150.81;5049544;28;20549;-72
2024/02/13 07:19:25;;;;;;;2.03;1.83;;;;;;;6.16;58.44;93138.19;5049756;28;20045;-73
2024/02/13 07:21:51;;;;;;;2.88;2.00;;;;;;;6.38;58.21;93146.06;5048097;28;20102;-72
2024/02/13 07:24:17;;;;;;;1.88;1.73;;;;;;;6.41;57.75;93135.66;5048177;28;20029;-72
2024/02/13 07:26:42;;;;;;;2.10;1.90;;;;;;;6.49;58.07;93152.66;5031496;28;20021;-72
2024/02/13 07:29:09;;;;;;;2.38;2.00;;;;;;;6.51;57.82;93142.56;5048501;28;20116;-72
2024/02/13 07:31:35;;;;;;;1.98;1.88;;;;;;;6.63;58.03;93156.00;5048218;28;20044;-72
2024/02/13 07:34:01;;;;;;;2.05;1.85;;;;;;;6.61;58.15;93150.22;5050130;28;20052;-71
2024/02/13 07:36:26;;;;;;;2.35;2.00;;;;;;;6.91;57.26;93153.13;5052347;28;20037;-72
2024/02/13 07:38:52;;;;;;;4.32;2.55;;;;;;;7.07;56.47;93146.34;5052605;28;20051;-72
2024/02/13 07:41:17;;;;;;;2.35;1.60;;;;;;;6.89;56.07;93139.47;5053028;28;20348;-72
2024/02/13 07:43:42;;;;;;;3.50;2.42;;;;;;;6.78;56.91;93145.03;5052641;28;20064;-72
2024/02/13 07:46:09;;;;;;;1.75;1.65;;;;;;;6.85;56.66;93152.50;5052609;28;20510;-73
2024/02/13 07:48:35;;;;;;;2.97;2.63;;;;;;;6.77;57.29;93153.25;5049836;28;20037;-73
2024/02/13 07:51:01;;;;;;;1.98;1.70;;;;;;;6.72;58.09;93153.38;5051816;28;20040;-72
2024/02/13 07:53:26;;;;;;;2.03;1.92;;;;;;;6.75;58.25;93144.84;5052162;28;20028;-72
2024/02/13 07:55:52;;;;;;;2.63;2.42;;;;;;;6.53;57.19;93131.69;5052332;28;20040;-72
2024/02/13 07:58:17;;;;;;;1.70;1.58;;;;;;;6.52;58.14;93164.47;5051552;28;20029;-72
2024/02/13 08:00:44;;;;;;;1.88;1.77;;;;;;;6.55;59.00;93166.53;5051850;28;20040;-72
2024/02/13 08:03:10;;;;;;;2.42;2.08;;;;;;;6.47;58.96;93157.44;5033601;28;20279;-72
2024/02/13 08:05:37;;;;;;;2.65;2.28;;;;;;;6.51;58.83;93161.03;5052190;28;20013;-72
2024/02/13 08:08:04;;;;;;;1.90;1.80;;;;;;;6.60;59.34;93180.38;5052242;28;20033;-72
2024/02/13 08:10:29;;;;;;;3.22;2.92;;;;;;;6.29;59.93;93184.84;5051948;28;20036;-72
2024/02/13 08:12:57;;;;;;;3.08;2.55;;;;;;;6.26;60.43;93177.53;5052253;28;20312;-72
2024/02/13 08:15:22;;;;;;;3.35;2.30;;;;;;;6.25;59.95;93186.53;5052534;28;20029;-72
2024/02/13 08:17:48;;;;;;;3.92;2.83;;;;;;;6.33;60.45;93185.81;5052454;28;20070;-72
2024/02/13 08:20:13;;;;;;;4.70;4.20;;;;;;;6.36;61.98;93188.63;5052633;28;20025;-72
2024/02/13 08:22:40;;;;;;;3.25;2.83;;;;;;;6.36;61.00;93179.94;5052059;28;20556;-72
2024/02/13 08:25:07;;;;;;;3.25;2.95;;;;;;;6.29;61.36;93172.44;5051455;28;20041;-72
2024/02/13 08:27:35;;;;;;;2.50;2.25;;;;;;;6.20;61.89;93166.31;5051541;28;20037;-72
2024/02/13 08:30:01;;;;;;;2.97;2.40;;;;;;;6.33;62.00;93169.97;5051289;28;20116;-72
2024/02/13 08:32:26;;;;;;;3.60;3.30;;;;;;;6.64;60.57;93194.53;5051418;28;20482;-72
2024/02/13 08:34:52;;;;;;;3.53;2.40;;;;;;;6.49;60.46;93183.56;5051279;28;20037;-71
2024/02/13 08:37:17;;;;;;;4.18;2.70;;;;;;;6.35;61.35;93175.72;5051078;28;20284;-72
2024/02/13 08:39:43;;;;;;;2.97;2.55;;;;;;;6.38;61.99;93193.59;5050614;28;20533;-72
2024/02/13 08:42:08;;;;;;;3.20;2.90;;;;;;;6.25;62.24;93146.94;5051238;28;20086;-72
2024/02/13 08:44:34;;;;;;;6.97;4.13;;;;;;;6.58;61.84;93187.81;5050973;28;20061;-72
2024/02/13 08:47:00;;;;;;;4.05;3.05;;;;;;;6.56;60.96;93178.63;5050439;28;20040;-72
2024/02/13 08:49:25;;;;;;;3.40;2.90;;;;;;;6.30;60.73;93173.22;5050971;28;20037;-72
2024/02/13 08:51:51;;;;;;;5.00;3.50;;;;;;;6.60;59.45;93195.44;5051117;28;20060;-73
2024/02/13 08:54:16;;;;;;;4.57;3.42;;;;;;;6.40;59.69;93170.31;5051572;28;20029;-72
2024/02/13 08:56:42;;;;;;;6.28;3.88;;;;;;;6.46;58.41;93169.09;5052058;28;20299;-72
2024/02/13 08:59:10;;;;;;;8.32;5.45;;;;;;;6.44;59.24;93197.69;5051382;28;20498;-72
2024/02/13 09:01:35;;;;;;;2.83;2.50;;;;;;;6.44;60.15;93195.03;5050923;28;20059;-72
2024/02/13 09:04:01;;;;;;;5.75;3.58;;;;;;;6.44;59.50;93168.63;5051029;28;20429;-72
2024/02/13 09:06:27;;;;;;;4.85;3.60;;;;;;;6.35;59.72;93168.59;5050781;28;20079;-72
2024/02/13 09:08:54;;;;;;;2.97;2.47;;;;;;;6.61;59.51;93187.22;5050723;28;20017;-72
2024/02/13 09:11:20;;;;;;;2.45;2.22;;;;;;;6.49;59.73;93162.44;5051556;28;20021;-72
2024/02/13 09:13:45;;;;;;;2.70;2.40;;;;;;;6.82;57.93;93182.97;5051064;28;20051;-72
2024/02/13 09:16:11;;;;;;;2.60;2.40;;;;;;;6.74;57.67;93180.28;5050997;28;20682;-73
2024/02/13 09:18:38;;;;;;;3.78;2.63;;;;;;;6.71;58.19;93179.03;5050758;28;20057;-72
2024/02/13 09:21:06;;;;;;;5.15;2.58;;;;;;;6.67;57.65;93174.66;5050830;28;20024;-72
2024/02/13 09:23:33;;;;;;;4.22;2.75;;;;;;;6.72;56.96;93183.22;5050969;28;20025;-72
2024/02/13 09:25:59;;;;;;;8.55;4.93;;;;;;;6.48;57.47;93174.88;5032675;28;20041;-72
2024/02/13 09:28:25;;;;;;;4.70;2.47;;;;;;;6.49;57.28;93189.63;5050422;28;20029;-72
2024/02/13 09:30:51;;;;;;;2.97;2.60;;;;;;;6.45;57.77;93178.13;5050443;28;20041;-72
2024/02/13 09:33:20;;;;;;;2.47;2.28;;;;;;;6.57;57.28;93202.09;5050566;28;20091;-72
2024/02/13 09:35:45;;;;;;;2.25;2.05;;;;;;;6.47;57.48;93193.66;5050316;28;20017;-70
2024/02/13 09:38:11;;;;;;;2.45;1.90;;;;;;;6.36;58.56;93198.41;5050477;28;20017;-73
2024/02/13 09:40:37;;;;;;;2.90;2.60;;;;;;;6.32;58.94;93195.59;5048637;28;20041;-72
2024/02/13 09:43:03;;;;;;;3.40;2.70;;;;;;;6.48;58.71;93188.06;5049841;28;20044;-73
2024/02/13 09:45:29;;;;;;;2.17;1.80;;;;;;;6.50;57.68;93175.34;5050267;28;20517;-73
2024/02/13 09:48:02;;;;;;;3.42;2.55;;;;;;;6.66;57.64;93184.44;5050024;28;20025;-72
2024/02/13 09:50:36;;;;;;;3.25;2.95;;;;;;;6.71;57.21;93179.03;5050827;28;20031;-73
2024/02/13 09:53:04;;;;;;;3.85;2.75;;;;;;;6.37;56.94;93162.97;5049617;28;20025;-72
2024/02/13 09:55:34;;;;;;;3.92;2.70;;;;;;;6.47;56.53;93164.59;5049666;28;20029;-73
2024/02/13 09:58:00;;;;;;;4.55;2.67;;;;;;;6.55;56.13;93177.09;5049720;28;20037;-73
2024/02/13 10:00:27;;;;;;;2.97;2.13;;;;;;;6.45;56.11;93167.56;5049690;28;20503;-73
2024/02/13 10:02:53;;;;;;;2.58;2.33;;;;;;;6.53;55.38;93152.81;5049691;28;20051;-72
2024/02/13 10:05:20;;;;;;;4.97;2.65;;;;;;;6.53;55.59;93174.75;5049988;28;20036;-73
2024/02/13 10:07:46;;;;;;;1.95;1.83;;;;;;;6.56;55.38;93158.28;5049988;28;20497;-72
2024/02/13 10:10:12;;;;;;;3.00;1.98;;;;;;;6.62;55.79;93157.06;5050197;28;20083;-72
2024/02/13 10:12:49;;;;;;;3.72;2.28;;;;;;;6.51;55.34;93139.13;5050109;28;20033;-73
2024/02/13 10:15:15;;;;;;;2.42;2.22;;;;;;;6.58;55.31;93150.06;5049965;28;20029;-73
2024/02/13 10:17:41;;;;;;;2.05;1.85;;;;;;;6.52;53.99;93130.91;5050390;28;20074;-72
2024/02/13 10:20:10;;;;;;;2.28;2.08;;;;;;;6.47;54.53;93154.81;5049573;28;20494;-71
2024/02/13 10:22:43;;;;;;;2.30;2.10;;;;;;;6.45;54.57;93148.28;5031751;28;20505;-72
2024/02/13 10:25:10;;;;;;;2.17;1.98;;;;;;;6.43;54.78;93157.28;5049640;28;20095;-73
2024/02/13 10:27:36;;;;;;;2.90;2.53;;;;;;;6.31;55.78;93153.66;5049874;28;20036;-72
2024/02/13 10:30:02;;;;;;;3.88;2.42;;;;;;;6.42;55.12;93136.44;5050062;28;20434;-73
2024/02/13 10:32:28;;;;;;;2.95;2.42;;;;;;;6.41;55.33;93129.59;5050231;28;20029;-73
2024/02/13 10:34:53;;;;;;;2.22;2.03;;;;;;;6.54;54.83;93147.25;5049283;28;20569;-73
2024/02/13 10:37:20;;;;;;;2.28;2.00;;;;;;;6.61;53.62;93142.28;5049962;28;20095;-74
2024/02/13 10:39:49;;;;;;;3.40;2.83;;;;;;;6.49;53.83;93131.53;5049403;28;20116;-74
2024/02/13 10:42:20;;;;;;;2.72;2.53;;;;;;;6.43;54.11;93132.72;5049827;28;20029;-73
2024/02/13 10:44:50;;;;;;;5.28;2.70;;;;;;;6.63;54.35;93147.28;5049541;28;20021;-71
2024/02/13 10:47:18;;;;;;;4.05;2.33;;;;;;;6.68;53.56;93149.78;5049289;28;20047;-73
2024/02/13 10:49:53;;;;;;;2.88;2.38;;;;;;;6.59;54.50;93135.75;5048514;28;20112;-73
2024/02/13 10:52:20;;;;;;;5.57;2.97;;;;;;;6.54;55.08;93131.41;5048779;28;20029;-73
2024/02/13 10:54:48;;;;;;;4.05;2.20;;;;;;;6.64;55.72;93146.97;5049255;28;20119;-73
2024/02/13 10:57:17;;;;;;;2.88;2.33;;;;;;;6.66;57.36;93141.38;5049184;28;20025;-72
2024/02/13 10:59:46;;;;;;;3.38;2.70;;;;;;;6.72;57.11;93137.53;5049665;28;20028;-73
2024/02/13 11:02:18;;;;;;;2.17;1.92;;;;;;;6.56;56.17;93123.16;5049463;28;20041;-73
2024/02/13 11:04:46;;;;;;;2.50;2.25;;;;;;;6.67;56.92;93143.72;5048837;28;20094;-73
2024/02/13 11:07:12;;;;;;;2.47;2.28;;;;;;;6.56;57.57;93136.34;5048376;28;20057;-73
2024/02/13 11:09:38;;;;;;;2.92;2.60;;;;;;;6.60;59.14;93138.13;5047754;28;20033;-74
2024/02/13 11:12:05;;;;;;;2.75;2.50;;;;;;;6.45;60.37;93143.00;5048655;28;20681;-73
2024/02/13 11:14:30;;;;;;;3.75;3.00;;;;;;;6.39;62.62;93129.13;5049722;28;20167;-73
2024/02/13 11:16:57;;;;;;;3.97;3.30;;;;;;;6.54;61.95;93136.69;5049176;28;20572;-73
2024/02/13 11:19:23;;;;;;;4.20;3.33;;;;;;;6.54;63.02;93128.75;5049116;28;20029;-73
2024/02/13 11:21:51;;;;;;;3.88;2.40;;;;;;;6.59;60.55;93141.06;5048646;28;20040;-73
2024/02/13 11:24:23;;;;;;;1.90;1.80;;;;;;;6.64;57.13;93133.78;5048969;28;20029;-73
2024/02/13 11:26:49;;;;;;;2.03;1.85;;;;;;;6.43;57.80;93127.44;5048820;28;20025;-74
2024/02/13 11:29:20;;;;;;;2.40;2.08;;;;;;;6.58;57.83;93134.19;5049735;28;20025;-73
2024/02/13 11:31:58;;;;;;;2.42;2.10;;;;;;;6.32;58.64;93111.06;5048306;28;20057;-73
2024/02/13 11:34:42;;;;;;;3.08;2.35;;;;;;;6.41;58.26;93129.59;5048367;28;20178;-73
2024/02/13 11:37:18;;;;;;;4.00;2.22;;;;;;;6.40;58.62;93122.78;5048198;28;20029;-73
2024/02/13 11:39:46;;;;;;;7.13;2.80;;;;;;;6.45;59.61;93130.56;5046971;28;20049;-72
2024/02/13 11:42:17;;;;;;;6.07;3.63;;;;;;;6.40;60.96;93125.41;5047835;28;20056;-72